createdAt,value
2023-05-25T00:00:15.819Z,17.05
2023-05-25T00:02:46.717Z,16.97
2023-05-25T00:05:14.548Z,17.34
2023-05-25T00:07:41.573Z,17.17
2023-05-25T00:10:09.281Z,16.59
2023-05-25T00:12:37.961Z,17.15
2023-05-25T00:15:07.021Z,16.90
2023-05-25T00:17:34.155Z,17.10
2023-05-25T00:20:11.023Z,16.82
2023-05-25T00:22:38.490Z,16.64
2023-05-25T00:25:06.599Z,16.78
2023-05-25T00:27:33.459Z,16.46
2023-05-25T00:30:00.671Z,16.74
2023-05-25T00:32:27.825Z,16.74
2023-05-25T00:34:55.458Z,16.48
2023-05-25T00:37:22.571Z,16.56
2023-05-25T00:39:49.413Z,16.91
2023-05-25T00:42:16.630Z,16.52
2023-05-25T00:44:43.640Z,16.43
2023-05-25T00:47:11.991Z,16.47
2023-05-25T00:49:39.037Z,16.60
2023-05-25T00:52:06.479Z,16.29
2023-05-25T00:54:35.498Z,16.07
2023-05-25T00:57:04.505Z,15.97
2023-05-25T00:59:44.716Z,16.27
2023-05-25T01:02:16.547Z,16.13
2023-05-25T01:04:47.216Z,16.06
2023-05-25T01:07:18.618Z,16.17
2023-05-25T01:09:46.999Z,15.92
2023-05-25T01:12:16.500Z,15.77
2023-05-25T01:14:43.924Z,16.30
2023-05-25T01:17:11.181Z,16.24
2023-05-25T01:19:41.234Z,16.08
2023-05-25T01:22:32.777Z,15.99
2023-05-25T01:25:04.007Z,16.06
2023-05-25T01:27:51.877Z,15.58
2023-05-25T01:30:21.668Z,15.26
2023-05-25T01:32:49.569Z,15.62
2023-05-25T01:35:20.141Z,15.47
2023-05-25T01:37:47.961Z,15.24
2023-05-25T01:40:15.858Z,15.29
2023-05-25T01:42:42.979Z,14.84
2023-05-25T01:45:11.069Z,14.90
2023-05-25T01:47:49.658Z,14.67
2023-05-25T01:50:23.885Z,14.52
2023-05-25T01:53:15.065Z,14.90
2023-05-25T01:55:55.169Z,14.74
2023-05-25T01:58:23.353Z,14.56
2023-05-25T02:00:51.952Z,15.04
2023-05-25T02:03:20.262Z,15.20
2023-05-25T02:05:47.689Z,15.25
2023-05-25T02:08:14.616Z,14.94
2023-05-25T02:10:41.457Z,14.98
2023-05-25T02:13:08.357Z,14.82
2023-05-25T02:15:35.318Z,14.43
2023-05-25T02:18:02.255Z,14.68
2023-05-25T02:20:29.228Z,15.46
2023-05-25T02:22:56.248Z,15.13
2023-05-25T02:25:23.301Z,15.19
2023-05-25T02:27:50.766Z,15.36
2023-05-25T02:30:17.829Z,15.54
2023-05-25T02:32:44.978Z,15.10
2023-05-25T02:35:12.204Z,15.19
2023-05-25T02:37:39.485Z,15.16
2023-05-25T02:40:06.958Z,15.05
2023-05-25T02:42:33.948Z,14.92
2023-05-25T02:45:00.997Z,15.33
2023-05-25T02:47:27.995Z,14.93
2023-05-25T02:49:55.026Z,14.93
2023-05-25T02:52:22.876Z,14.95
2023-05-25T02:54:49.844Z,15.06
2023-05-25T02:57:17.123Z,15.29
2023-05-25T02:59:44.067Z,15.13
2023-05-25T03:02:11.012Z,15.29
2023-05-25T03:04:39.214Z,15.24
2023-05-25T03:07:06.301Z,15.35
2023-05-25T03:09:33.352Z,15.29
2023-05-25T03:12:00.319Z,14.79
2023-05-25T03:14:27.921Z,14.93
2023-05-25T03:16:55.062Z,14.96
2023-05-25T03:19:22.235Z,14.91
2023-05-25T03:21:49.208Z,15.00
2023-05-25T03:24:16.227Z,15.10
2023-05-25T03:26:43.201Z,14.78
2023-05-25T03:29:10.510Z,14.74
2023-05-25T03:31:37.501Z,14.65
2023-05-25T03:34:04.693Z,14.91
2023-05-25T03:36:32.995Z,14.98
2023-05-25T03:39:00.349Z,15.15
2023-05-25T03:41:27.355Z,15.17
2023-05-25T03:43:54.276Z,14.61
2023-05-25T03:46:21.330Z,15.50
2023-05-25T03:48:48.256Z,15.60
2023-05-25T03:51:15.189Z,15.58
2023-05-25T03:53:42.085Z,15.94
2023-05-25T03:56:08.988Z,16.34
2023-05-25T03:58:35.925Z,16.38
2023-05-25T04:01:05.091Z,16.21
2023-05-25T04:03:33.356Z,16.40
2023-05-25T04:06:00.825Z,16.02
2023-05-25T04:08:29.033Z,16.69
2023-05-25T04:10:56.527Z,16.87
2023-05-25T04:13:23.671Z,17.55
2023-05-25T04:15:51.094Z,17.82
2023-05-25T04:18:18.042Z,18.35
2023-05-25T04:20:46.922Z,18.10
2023-05-25T04:23:13.827Z,17.79
2023-05-25T04:25:42.554Z,18.35
2023-05-25T04:28:09.546Z,18.47
2023-05-25T04:30:36.470Z,19.01
2023-05-25T04:33:03.818Z,19.25
2023-05-25T04:35:31.938Z,18.66
2023-05-25T04:38:03.110Z,19.15
2023-05-25T04:40:30.354Z,19.65
2023-05-25T04:42:57.441Z,19.87
2023-05-25T04:45:24.413Z,20.34
2023-05-25T04:47:51.488Z,20.60
2023-05-25T04:50:18.694Z,20.91
2023-05-25T04:52:45.803Z,21.48
2023-05-25T04:55:12.766Z,21.78
2023-05-25T04:57:39.879Z,21.75
2023-05-25T05:00:09.984Z,21.92
2023-05-25T05:02:37.450Z,22.03
2023-05-25T05:05:04.627Z,21.98
2023-05-25T05:07:31.900Z,22.16
2023-05-25T05:09:58.842Z,22.15
2023-05-25T05:14:53.374Z,21.66
2023-05-25T05:17:20.518Z,21.12
2023-05-25T05:19:47.517Z,21.82
2023-05-25T05:22:16.222Z,22.10
2023-05-25T05:24:43.250Z,21.99
2023-05-25T05:27:10.947Z,22.05
2023-05-25T05:29:37.945Z,22.29
2023-05-25T05:32:05.180Z,22.37
2023-05-25T05:34:32.241Z,21.62
2023-05-25T05:37:00.437Z,21.73
2023-05-25T05:39:28.306Z,22.64
2023-05-25T05:41:55.959Z,23.02
2023-05-25T05:44:25.246Z,22.97
2023-05-25T05:47:01.245Z,22.00
2023-05-25T05:49:29.679Z,23.81
2023-05-25T05:51:57.089Z,24.09
2023-05-25T05:54:24.257Z,23.39
2023-05-25T05:56:51.827Z,22.54
2023-05-25T05:59:18.812Z,22.10
2023-05-25T06:01:45.864Z,23.02
2023-05-25T06:04:13.461Z,23.39
2023-05-25T06:06:42.308Z,23.80
2023-05-25T06:09:10.276Z,23.92
2023-05-25T06:11:40.314Z,24.46
2023-05-25T06:14:07.325Z,24.67
2023-05-25T06:16:34.379Z,24.23
2023-05-25T06:19:01.576Z,23.98
2023-05-25T06:21:28.642Z,24.53
2023-05-25T06:23:58.022Z,25.24
2023-05-25T06:26:25.200Z,25.58
2023-05-25T06:28:52.350Z,25.43
2023-05-25T06:31:19.597Z,25.05
2023-05-25T06:33:46.776Z,25.45
2023-05-25T06:36:15.755Z,25.86
2023-05-25T06:38:43.305Z,26.05
2023-05-25T06:41:13.027Z,26.35
2023-05-25T06:43:40.106Z,26.22
2023-05-25T06:46:07.182Z,26.24
2023-05-25T06:48:34.191Z,26.89
2023-05-25T06:51:01.356Z,25.93
2023-05-25T06:53:28.362Z,26.36
2023-05-25T06:55:55.348Z,26.08
2023-05-25T06:58:22.340Z,25.59
2023-05-25T07:00:49.426Z,25.06
2023-05-25T07:03:16.937Z,25.42
2023-05-25T07:05:44.459Z,24.99
2023-05-25T07:08:11.711Z,24.85
2023-05-25T07:10:38.716Z,24.86
2023-05-25T07:13:05.669Z,25.33
2023-05-25T07:15:32.725Z,25.11
2023-05-25T07:17:59.742Z,25.33
2023-05-25T07:20:27.691Z,25.35
2023-05-25T07:22:54.930Z,24.10
2023-05-25T07:25:21.923Z,25.29
2023-05-25T07:27:55.329Z,25.52
2023-05-25T07:30:22.724Z,26.14
2023-05-25T07:32:49.736Z,26.77
2023-05-25T07:35:16.741Z,25.64
2023-05-25T07:37:43.758Z,26.03
2023-05-25T07:40:11.258Z,25.14
2023-05-25T07:42:38.209Z,25.50
2023-05-25T07:45:05.929Z,26.25
2023-05-25T07:47:32.885Z,25.74
2023-05-25T07:49:59.978Z,25.78
2023-05-25T07:52:27.269Z,25.73
2023-05-25T07:54:54.250Z,26.58
2023-05-25T07:57:22.036Z,26.73
2023-05-25T07:59:49.006Z,26.68
2023-05-25T08:02:16.231Z,26.65
2023-05-25T08:04:43.359Z,26.41
2023-05-25T08:07:10.565Z,25.76
2023-05-25T08:09:37.784Z,25.35
2023-05-25T08:12:26.986Z,25.62
2023-05-25T08:14:52.216Z,26.32
2023-05-25T08:17:19.263Z,26.98
2023-05-25T08:19:46.656Z,25.92
2023-05-25T08:22:13.871Z,26.25
2023-05-25T08:24:41.530Z,25.62
2023-05-25T08:27:08.522Z,26.77
2023-05-25T08:29:35.513Z,27.05
2023-05-25T08:32:02.539Z,28.05
2023-05-25T08:34:29.907Z,28.03
2023-05-25T08:36:58.243Z,28.42
2023-05-25T08:39:25.274Z,27.10
2023-05-25T08:41:52.382Z,26.44
2023-05-25T08:44:19.912Z,28.05
2023-05-25T08:46:49.815Z,27.86
2023-05-25T08:49:17.426Z,27.14
2023-05-25T08:51:55.156Z,27.86
2023-05-25T08:54:32.140Z,28.87
2023-05-25T08:57:11.822Z,29.63
2023-05-25T08:59:56.632Z,29.72
2023-05-25T09:02:39.158Z,30.59
2023-05-25T09:05:07.521Z,30.90
2023-05-25T09:07:35.262Z,30.97
2023-05-25T09:10:03.825Z,30.89
2023-05-25T09:12:31.809Z,29.45
2023-05-25T09:14:59.337Z,30.61
2023-05-25T09:17:27.134Z,30.97
2023-05-25T09:19:55.105Z,31.17
2023-05-25T09:22:22.246Z,31.27
2023-05-25T09:24:49.614Z,31.64
2023-05-25T09:27:19.395Z,31.88
2023-05-25T09:29:50.722Z,31.79
2023-05-25T09:32:19.223Z,31.65
2023-05-25T09:34:47.473Z,31.48
2023-05-25T09:37:17.554Z,31.53
2023-05-25T09:39:45.764Z,32.01
2023-05-25T09:42:13.121Z,29.42
2023-05-25T09:44:42.978Z,31.34
2023-05-25T09:47:10.451Z,31.95
2023-05-25T09:49:37.632Z,32.04
2023-05-25T09:52:04.918Z,30.99
2023-05-25T09:54:31.926Z,31.12
2023-05-25T09:57:03.279Z,31.88
2023-05-25T09:59:30.791Z,30.20
2023-05-25T10:01:58.961Z,29.59
2023-05-25T10:04:26.198Z,28.97
2023-05-25T10:06:54.053Z,29.72
2023-05-25T10:09:21.921Z,30.89
2023-05-25T10:11:52.183Z,30.75
2023-05-25T10:14:27.998Z,31.38
2023-05-25T10:16:58.769Z,32.43
2023-05-25T10:19:33.865Z,32.73
2023-05-25T10:22:22.283Z,28.67
2023-05-25T10:24:57.798Z,29.26
2023-05-25T10:27:30.105Z,30.49
2023-05-25T10:30:00.253Z,31.39
2023-05-25T10:32:28.572Z,31.16
2023-05-25T10:34:57.804Z,31.14
2023-05-25T10:37:26.506Z,31.67
2023-05-25T10:39:56.867Z,31.96
2023-05-25T10:42:24.273Z,30.99
2023-05-25T10:44:51.247Z,31.65
2023-05-25T10:47:19.216Z,31.60
2023-05-25T10:49:59.207Z,32.17
2023-05-25T10:52:31.007Z,32.26
2023-05-25T10:55:02.434Z,32.30
2023-05-25T10:57:29.636Z,31.42
2023-05-25T11:00:02.534Z,30.56
2023-05-25T11:02:30.362Z,31.53
2023-05-25T11:05:26.559Z,31.66
2023-05-25T11:07:55.524Z,31.68
2023-05-25T11:10:50.627Z,31.63
2023-05-25T11:13:41.428Z,32.20
2023-05-25T11:16:27.885Z,33.06
2023-05-25T11:19:00.252Z,32.79
2023-05-25T11:21:30.648Z,33.51
2023-05-25T11:23:59.434Z,32.39
2023-05-25T11:26:29.989Z,33.20
2023-05-25T11:29:02.228Z,32.72
2023-05-25T11:31:37.098Z,33.10
2023-05-25T11:34:06.419Z,32.99
2023-05-25T11:36:36.449Z,33.15
2023-05-25T11:39:11.632Z,32.81
2023-05-25T11:41:56.322Z,33.05
2023-05-25T11:44:31.434Z,31.87
2023-05-25T11:47:02.374Z,30.76
2023-05-25T11:49:29.621Z,29.37
2023-05-25T11:52:00.276Z,30.15
2023-05-25T11:54:28.761Z,28.65
2023-05-25T11:56:59.689Z,29.76
2023-05-25T11:59:29.646Z,30.18
2023-05-25T12:02:03.581Z,29.12
2023-05-25T12:04:33.169Z,29.42
2023-05-25T12:07:08.219Z,29.82
2023-05-25T12:09:36.996Z,30.38
2023-05-25T12:12:05.158Z,30.65
2023-05-25T12:14:35.177Z,30.50
2023-05-25T12:17:02.387Z,29.69
2023-05-25T12:19:29.664Z,29.56
2023-05-25T12:21:56.959Z,29.65
2023-05-25T12:24:25.092Z,29.12
2023-05-25T12:27:02.098Z,30.32
2023-05-25T12:29:29.457Z,31.17
2023-05-25T12:32:06.967Z,31.99
2023-05-25T12:34:34.857Z,30.99
2023-05-25T12:37:01.871Z,30.16
2023-05-25T12:39:31.584Z,31.01
2023-05-25T12:42:00.165Z,30.79
2023-05-25T12:44:31.684Z,29.58
2023-05-25T12:47:14.378Z,30.37
2023-05-25T12:49:45.993Z,31.27
2023-05-25T12:52:33.113Z,30.84
2023-05-25T12:55:18.786Z,30.26
2023-05-25T12:57:47.396Z,31.18
2023-05-25T13:00:14.616Z,31.40
2023-05-25T13:02:49.617Z,29.70
2023-05-25T13:05:21.734Z,30.70
2023-05-25T13:07:49.121Z,30.51
2023-05-25T13:10:19.967Z,30.84
2023-05-25T13:12:48.114Z,31.28
2023-05-25T13:15:17.915Z,28.81
2023-05-25T13:17:45.377Z,29.77
2023-05-25T13:20:14.543Z,30.65
2023-05-25T13:22:45.984Z,31.17
2023-05-25T13:25:14.880Z,31.25
2023-05-25T13:27:47.088Z,31.21
2023-05-25T13:30:14.748Z,30.78
2023-05-25T13:32:46.514Z,31.17
2023-05-25T13:35:38.273Z,30.77
2023-05-25T13:38:05.374Z,30.54
2023-05-25T13:40:32.541Z,31.55
2023-05-25T13:42:59.553Z,31.82
2023-05-25T13:45:26.515Z,32.42
2023-05-25T13:47:53.572Z,32.73
2023-05-25T13:50:20.590Z,32.13
2023-05-25T13:52:47.577Z,31.66
2023-05-25T13:55:14.600Z,31.68
2023-05-25T13:57:41.617Z,31.87
2023-05-25T14:00:09.725Z,31.77
2023-05-25T14:02:37.587Z,30.93
2023-05-25T14:05:05.240Z,31.41
2023-05-25T14:07:32.967Z,30.93
2023-05-25T14:10:00.358Z,30.87
2023-05-25T14:12:27.837Z,30.19
2023-05-25T14:14:54.948Z,30.80
2023-05-25T14:17:21.991Z,30.69
2023-05-25T14:19:49.072Z,29.41
2023-05-25T14:22:16.035Z,29.39
2023-05-25T14:24:43.080Z,28.26
2023-05-25T14:27:10.117Z,27.67
2023-05-25T14:29:37.200Z,28.15
2023-05-25T14:32:04.549Z,27.59
2023-05-25T14:34:31.610Z,26.63
2023-05-25T14:36:58.634Z,26.69
2023-05-25T14:39:26.032Z,27.30
2023-05-25T14:41:53.039Z,27.96
2023-05-25T14:44:20.000Z,28.54
2023-05-25T14:46:47.106Z,27.10
2023-05-25T14:49:14.219Z,26.65
2023-05-25T14:51:41.176Z,27.90
2023-05-25T14:54:08.188Z,28.51
2023-05-25T14:56:35.391Z,28.04
2023-05-25T14:59:02.549Z,27.92
2023-05-25T15:01:29.771Z,27.32
2023-05-25T15:03:57.448Z,26.54
2023-05-25T15:06:24.650Z,27.40
2023-05-25T15:08:51.850Z,27.28
2023-05-25T15:11:18.900Z,27.58
2023-05-25T15:13:46.218Z,26.85
2023-05-25T15:16:17.431Z,26.52
2023-05-25T15:18:44.973Z,27.20
2023-05-25T15:21:12.046Z,27.30
2023-05-25T15:23:39.005Z,27.38
2023-05-25T15:26:07.961Z,27.55
2023-05-25T15:28:35.316Z,27.30
2023-05-25T15:31:03.331Z,27.68
2023-05-25T15:33:48.507Z,27.25
2023-05-25T15:36:18.951Z,27.12
2023-05-25T15:38:49.469Z,26.62
2023-05-25T15:41:17.759Z,26.06
2023-05-25T15:43:58.748Z,26.10
2023-05-25T15:46:26.205Z,26.36
2023-05-25T15:48:53.727Z,25.71
2023-05-25T15:51:21.548Z,25.75
2023-05-25T15:53:48.760Z,26.10
2023-05-25T15:56:16.006Z,25.49
2023-05-25T15:58:45.453Z,26.19
2023-05-25T16:01:13.908Z,26.05
2023-05-25T16:03:43.234Z,26.05
2023-05-25T16:06:10.732Z,26.45
2023-05-25T16:08:37.670Z,26.26
2023-05-25T16:11:04.858Z,25.63
2023-05-25T16:13:31.839Z,25.69
2023-05-25T16:15:58.871Z,25.16
2023-05-25T16:18:26.069Z,25.75
2023-05-25T16:20:56.603Z,25.37
2023-05-25T16:23:24.168Z,25.85
2023-05-25T16:25:51.307Z,25.10
2023-05-25T16:28:18.541Z,25.05
2023-05-25T16:30:45.696Z,25.51
2023-05-25T16:33:12.757Z,25.35
2023-05-25T16:35:39.865Z,25.80
2023-05-25T16:38:06.863Z,25.14
2023-05-25T16:40:33.870Z,25.54
2023-05-25T16:43:00.883Z,25.74
2023-05-25T16:45:27.978Z,25.92
2023-05-25T16:47:54.977Z,25.81
2023-05-25T16:50:22.040Z,25.97
2023-05-25T16:52:48.922Z,26.26
2023-05-25T16:55:16.566Z,26.40
2023-05-25T16:57:43.623Z,25.47
2023-05-25T17:00:11.762Z,25.10
2023-05-25T17:02:38.888Z,25.58
2023-05-25T17:05:07.000Z,25.93
2023-05-25T17:07:34.927Z,26.00
2023-05-25T17:10:02.051Z,24.82
2023-05-25T17:12:29.110Z,25.26
2023-05-25T17:14:56.064Z,25.55
2023-05-25T17:17:23.286Z,25.77
2023-05-25T17:19:50.337Z,25.53
2023-05-25T17:22:17.425Z,25.32
2023-05-25T17:24:44.383Z,25.14
2023-05-25T17:27:11.433Z,25.42
2023-05-25T17:29:38.430Z,25.68
2023-05-25T17:32:05.854Z,25.29
2023-05-25T17:34:33.041Z,25.46
2023-05-25T17:37:00.005Z,25.11
2023-05-25T17:39:26.925Z,25.20
2023-05-25T17:41:53.924Z,25.24
2023-05-25T17:44:21.072Z,25.15
2023-05-25T17:46:47.994Z,25.12
2023-05-25T17:49:14.948Z,24.91
2023-05-25T17:51:41.959Z,25.15
2023-05-25T17:54:09.280Z,25.09
2023-05-25T17:56:36.407Z,24.65
2023-05-25T17:59:03.798Z,24.92
2023-05-25T18:01:30.746Z,24.93
2023-05-25T18:03:58.067Z,25.12
2023-05-25T18:06:26.683Z,24.94
2023-05-25T18:08:55.805Z,24.87
2023-05-25T18:11:23.572Z,25.10
2023-05-25T18:13:51.128Z,25.28
2023-05-25T18:16:18.124Z,25.29
2023-05-25T18:18:45.109Z,24.99
2023-05-25T18:21:12.076Z,24.45
2023-05-25T18:23:39.107Z,24.60
2023-05-25T18:26:06.557Z,24.92
2023-05-25T18:28:33.556Z,24.87
2023-05-25T18:31:00.488Z,24.76
2023-05-25T18:33:27.545Z,24.95
2023-05-25T18:35:54.624Z,24.48
2023-05-25T18:38:21.596Z,24.39
2023-05-25T18:40:48.570Z,24.19
2023-05-25T18:43:15.563Z,24.26
2023-05-25T18:45:42.662Z,23.97
2023-05-25T18:48:10.392Z,24.28
2023-05-25T18:50:37.854Z,24.29
2023-05-25T18:53:07.823Z,24.29
2023-05-25T18:55:35.004Z,24.24
2023-05-25T18:58:02.016Z,24.28
2023-05-25T19:00:28.951Z,24.01
2023-05-25T19:02:57.463Z,23.93
2023-05-25T19:05:25.048Z,23.73
2023-05-25T19:07:59.301Z,23.64
2023-05-25T19:10:27.609Z,23.83
2023-05-25T19:12:54.723Z,23.80
2023-05-25T19:15:21.829Z,23.77
2023-05-25T19:17:48.939Z,23.13
2023-05-25T19:20:16.189Z,23.56
2023-05-25T19:22:43.625Z,23.62
2023-05-25T19:25:10.817Z,23.29
2023-05-25T19:27:37.861Z,23.42
2023-05-25T19:30:05.209Z,23.45
2023-05-25T19:32:32.595Z,23.42
2023-05-25T19:34:59.675Z,23.29
2023-05-25T19:37:26.922Z,23.03
2023-05-25T19:39:54.118Z,23.15
2023-05-25T19:42:21.064Z,23.30
2023-05-25T19:44:48.026Z,23.18
2023-05-25T19:47:15.062Z,23.09
2023-05-25T19:49:42.183Z,23.16
2023-05-25T19:52:09.121Z,23.18
2023-05-25T19:54:36.197Z,23.25
2023-05-25T19:57:03.225Z,23.33
2023-05-25T19:59:31.559Z,23.31
2023-05-25T20:01:58.728Z,23.16
2023-05-25T20:04:25.976Z,22.94
2023-05-25T20:06:53.940Z,22.80
2023-05-25T20:09:30.065Z,22.62
2023-05-25T20:11:58.764Z,22.72
2023-05-25T20:14:26.132Z,22.38
2023-05-25T20:16:54.603Z,22.56
2023-05-25T20:19:24.183Z,22.54
2023-05-25T20:21:51.612Z,22.17
2023-05-25T20:24:18.683Z,22.34
2023-05-25T20:26:45.651Z,22.23
2023-05-25T20:29:12.591Z,22.31
2023-05-25T20:31:40.598Z,22.22
2023-05-25T20:34:07.626Z,21.98
2023-05-25T20:36:34.568Z,22.18
2023-05-25T20:39:03.288Z,22.20
2023-05-25T20:41:30.306Z,22.09
2023-05-25T20:43:57.264Z,21.84
2023-05-25T20:46:24.340Z,21.84
2023-05-25T20:48:52.213Z,21.77
2023-05-25T20:51:19.407Z,21.79
2023-05-25T20:53:46.473Z,21.90
2023-05-25T20:56:13.358Z,21.59
2023-05-25T20:58:41.128Z,21.67
2023-05-25T21:01:08.600Z,21.72
2023-05-25T21:03:35.633Z,21.76
2023-05-25T21:06:02.871Z,21.51
2023-05-25T21:08:29.904Z,21.54
2023-05-25T21:10:56.796Z,21.51
2023-05-25T21:13:23.766Z,21.53
2023-05-25T21:15:51.021Z,21.76
2023-05-25T21:18:18.072Z,21.54
2023-05-25T21:20:45.080Z,21.43
2023-05-25T21:23:12.144Z,21.39
2023-05-25T21:25:39.086Z,21.15
2023-05-25T21:28:07.096Z,21.12
2023-05-25T21:30:34.063Z,21.06
2023-05-25T21:33:01.065Z,20.97
2023-05-25T21:35:28.084Z,20.97
2023-05-25T21:37:55.061Z,20.98
2023-05-25T21:40:21.956Z,20.74
2023-05-25T21:42:51.081Z,20.88
2023-05-25T21:45:18.372Z,20.65
2023-05-25T21:47:45.424Z,20.54
2023-05-25T21:50:12.391Z,20.49
2023-05-25T21:52:39.432Z,20.50
2023-05-25T21:55:06.968Z,20.69
2023-05-25T21:57:33.883Z,20.51
2023-05-25T22:00:00.886Z,20.42
2023-05-25T22:02:28.063Z,20.33
2023-05-25T22:04:55.061Z,20.24
2023-05-25T22:07:22.244Z,20.09
2023-05-25T22:09:49.160Z,20.22
2023-05-25T22:12:16.132Z,20.19
2023-05-25T22:14:43.105Z,20.18
2023-05-25T22:17:10.297Z,19.75
2023-05-25T22:19:37.317Z,20.12
2023-05-25T22:22:04.520Z,19.77
2023-05-25T22:24:31.660Z,19.63
2023-05-25T22:26:58.661Z,19.48
2023-05-25T22:29:26.103Z,19.73
2023-05-25T22:31:53.041Z,19.53
2023-05-25T22:34:20.055Z,19.67
2023-05-25T22:36:47.024Z,19.75
2023-05-25T22:39:14.146Z,19.38
2023-05-25T22:41:41.256Z,18.88
2023-05-25T22:44:08.238Z,18.81
2023-05-25T22:46:35.174Z,19.36
2023-05-25T22:49:02.300Z,18.89
2023-05-25T22:51:29.360Z,18.89
2023-05-25T22:53:56.270Z,19.24
2023-05-25T22:56:23.255Z,19.21
2023-05-25T22:58:50.220Z,19.17
2023-05-25T23:01:17.227Z,19.50
2023-05-25T23:03:44.370Z,19.32
2023-05-25T23:06:11.451Z,19.63
2023-05-25T23:08:38.420Z,19.60
2023-05-25T23:11:05.371Z,19.55
2023-05-25T23:13:32.331Z,19.58
2023-05-25T23:15:59.777Z,19.53
2023-05-25T23:18:26.994Z,19.69
2023-05-25T23:20:53.961Z,19.56
2023-05-25T23:23:20.952Z,19.33
2023-05-25T23:25:47.842Z,19.15
2023-05-25T23:28:14.833Z,18.97
2023-05-25T23:30:41.802Z,19.00
2023-05-25T23:33:08.822Z,19.02
2023-05-25T23:35:36.071Z,18.25
2023-05-25T23:38:03.006Z,18.83
2023-05-25T23:40:30.032Z,18.81
2023-05-25T23:42:57.025Z,18.57
2023-05-25T23:45:23.951Z,18.23
2023-05-25T23:47:51.008Z,18.42
2023-05-25T23:50:18.045Z,18.32
2023-05-25T23:52:46.281Z,18.34
2023-05-25T23:55:14.067Z,18.33
2023-05-25T23:57:41.296Z,18.67
